Elizabethtown, KY

9:01 AM EDT on May 05, 2015 (GMT -0400)
Hillsdales Estates | | Change Station
CLOSE
Current Station
Personal Weather Station
Location: Elizabethtown, KY
Elevation: 873 ft
Nearby Weather Stations

Elev 873 ft 37.73 °N, 85.80 °W | Updated 1 minute ago

Partly Cloudy
Partly Cloudy
68.0 °F
Feels Like 68.0 °F
N
2.5
Wind Variable Wind from West
Gusts 2.5 mph

Today
High -- | Low -- °F
--% Chance of Precip.
Yesterday
High -- | Low -- °F
Precip. -- in
6:43 AM 8:37 PM
Full, 98% visible
Pressure 30.26 in
Visibility 10.0 miles
Clouds Scattered Clouds 25000 ft
Dew Point 57 °F
Humidity 67%
Rainfall 0.00 in
Snow Depth Not available.
UV 2.0 out of 12
Pollen 10.20 out of 12
Air Quality Not available.
Flu Activity Sporadic
METAR KFTK 051158Z 00000KT 10SM SCT250 16/12 A3026 RMK AO2A SLP246 60000 T01590124 10172 20132 52014

More Conditions Fewer Conditions

Pressure 30.26 in
Visibility 10.0 miles
Clouds Scattered Clouds 25000 ft
Dew Point 57 °F
Humidity 67%
Rainfall 0.00 in
Snow Depth Not available.
UV 2.0 out of 12
Pollen 10.20 out of 12
Air Quality Not available.
Flu Activity Sporadic
METAR KFTK 051158Z 00000KT 10SM SCT250 16/12 A3026 RMK AO2A SLP246 60000 T01590124 10172 20132 52014

More Conditions Fewer Conditions

Nepal has a long way to go to dig out and rebuild from a devastating earthquake. We have teamed up with several charities and organizations to make contributing to the relief effort as easy as possible.
How you can help: Portlight Strategies | Red Cross

10-Day Weather Forecast

Almanac

Astronomy

May. 05, 2015 Rise Set
Actual Time
Civil Twilight
Nautical Twilight
Astronomical Twilight
Moon
Length of Visible Light
Length of Day
Tomorrow will be .
, % of the Moon is Illuminated

Today's Extremes

State Highs State Lows

Community

WunderPhotos

Upload Photos

1,818,876 photos uploaded!

WunderBlogs® & News

Nearby

Air Quality

  Air Quality AQ Index Pollutant
Not available.

Snow Depth

Station Depth Elevation

Earthquake Activity

City Distance Mag. Time & Date
Minimum magnitude displayed is 2.5.

Coastal Water Temperatures

Place Temperature

Stations

Nearby Weather Stations

Station Location Temp. Windchill Dew Point Humidity Wind Precip. Elev Updated Type